sensor_id;sensor_type;location;lat;lon;timestamp;temperature;humidity
20141;DHT22;10231;47.702;9.826;2023-02-01T00:02:02;3.30;99.90
20141;DHT22;10231;47.702;9.826;2023-02-01T00:04:28;3.30;99.90
20141;DHT22;10231;47.702;9.826;2023-02-01T00:06:53;3.20;99.90
20141;DHT22;10231;47.702;9.826;2023-02-01T00:09:19;3.20;99.90
20141;DHT22;10231;47.702;9.826;2023-02-01T00:11:45;3.30;99.90
20141;DHT22;10231;47.702;9.826;2023-02-01T00:14:11;3.30;99.90
20141;DHT22;10231;47.702;9.826;2023-02-01T00:16:36;3.30;99.90
20141;DHT22;10231;47.702;9.826;2023-02-01T00:19:09;3.30;99.90
20141;DHT22;10231;47.702;9.826;2023-02-01T00:21:35;3.30;99.90
20141;DHT22;10231;47.702;9.826;2023-02-01T00:24:01;3.30;99.90
20141;DHT22;10231;47.702;9.826;2023-02-01T00:26:32;3.30;99.90
20141;DHT22;10231;47.702;9.826;2023-02-01T00:28:59;3.20;99.90
20141;DHT22;10231;47.702;9.826;2023-02-01T00:31:25;3.30;99.90
20141;DHT22;10231;47.702;9.826;2023-02-01T00:33:51;3.30;99.90
20141;DHT22;10231;47.702;9.826;2023-02-01T00:36:17;3.30;99.90
20141;DHT22;10231;47.702;9.826;2023-02-01T00:38:43;3.30;99.90
20141;DHT22;10231;47.702;9.826;2023-02-01T00:41:17;3.30;99.90
20141;DHT22;10231;47.702;9.826;2023-02-01T00:43:43;3.30;99.90
20141;DHT22;10231;47.702;9.826;2023-02-01T00:46:10;3.40;99.90
20141;DHT22;10231;47.702;9.826;2023-02-01T00:48:37;3.40;99.90
20141;DHT22;10231;47.702;9.826;2023-02-01T00:51:08;3.40;99.90
20141;DHT22;10231;47.702;9.826;2023-02-01T00:53:34;3.40;99.90
20141;DHT22;10231;47.702;9.826;2023-02-01T00:56:00;3.30;99.90
20141;DHT22;10231;47.702;9.826;2023-02-01T00:58:26;3.30;99.90
20141;DHT22;10231;47.702;9.826;2023-02-01T01:01:06;3.30;99.90
20141;DHT22;10231;47.702;9.826;2023-02-01T01:03:34;3.30;99.90
20141;DHT22;10231;47.702;9.826;2023-02-01T01:06:02;3.30;99.90
20141;DHT22;10231;47.702;9.826;2023-02-01T01:08:28;3.30;99.90
20141;DHT22;10231;47.702;9.826;2023-02-01T01:10:53;3.30;99.90
20141;DHT22;10231;47.702;9.826;2023-02-01T01:13:19;3.30;99.90
20141;DHT22;10231;47.702;9.826;2023-02-01T01:15:45;3.20;99.90
20141;DHT22;10231;47.702;9.826;2023-02-01T01:18:11;3.30;99.90
20141;DHT22;10231;47.702;9.826;2023-02-01T01:20:39;3.30;99.90
20141;DHT22;10231;47.702;9.826;2023-02-01T01:23:06;3.30;99.90
20141;DHT22;10231;47.702;9.826;2023-02-01T01:25:32;3.30;99.90
20141;DHT22;10231;47.702;9.826;2023-02-01T01:27:58;3.30;99.90
20141;DHT22;10231;47.702;9.826;2023-02-01T01:30:23;3.30;99.90
20141;DHT22;10231;47.702;9.826;2023-02-01T01:32:49;3.20;99.90
20141;DHT22;10231;47.702;9.826;2023-02-01T01:35:15;3.20;99.90
20141;DHT22;10231;47.702;9.826;2023-02-01T01:37:40;3.30;99.90
20141;DHT22;10231;47.702;9.826;2023-02-01T01:40:07;3.20;99.90
20141;DHT22;10231;47.702;9.826;2023-02-01T01:42:39;3.20;99.90
20141;DHT22;10231;47.702;9.826;2023-02-01T01:45:16;3.20;99.90
20141;DHT22;10231;47.702;9.826;2023-02-01T01:48:04;3.30;99.90
20141;DHT22;10231;47.702;9.826;2023-02-01T01:50:44;3.30;99.90
20141;DHT22;10231;47.702;9.826;2023-02-01T01:53:16;3.30;99.90
20141;DHT22;10231;47.702;9.826;2023-02-01T01:55:43;3.30;99.90
20141;DHT22;10231;47.702;9.826;2023-02-01T01:58:16;3.30;99.90
20141;DHT22;10231;47.702;9.826;2023-02-01T02:00:43;3.30;99.90
20141;DHT22;10231;47.702;9.826;2023-02-01T02:08:58;3.30;99.90
20141;DHT22;10231;47.702;9.826;2023-02-01T02:11:23;3.30;99.90
20141;DHT22;10231;47.702;9.826;2023-02-01T02:13:52;3.20;99.90
20141;DHT22;10231;47.702;9.826;2023-02-01T02:16:35;3.20;99.90
20141;DHT22;10231;47.702;9.826;2023-02-01T02:19:32;3.20;99.90
20141;DHT22;10231;47.702;9.826;2023-02-01T02:36:21;3.20;99.90
20141;DHT22;10231;47.702;9.826;2023-02-01T02:42:03;3.10;99.90
20141;DHT22;10231;47.702;9.826;2023-02-01T02:48:20;3.20;99.90
20141;DHT22;10231;47.702;9.826;2023-02-01T02:54:09;3.10;99.90
20141;DHT22;10231;47.702;9.826;2023-02-01T02:56:56;3.20;99.90
20141;DHT22;10231;47.702;9.826;2023-02-01T02:59:43;3.20;99.90
20141;DHT22;10231;47.702;9.826;2023-02-01T03:02:29;3.10;99.90
20141;DHT22;10231;47.702;9.826;2023-02-01T03:05:13;3.20;99.90
20141;DHT22;10231;47.702;9.826;2023-02-01T03:12:54;3.30;99.90
20141;DHT22;10231;47.702;9.826;2023-02-01T03:15:24;3.20;99.90
20141;DHT22;10231;47.702;9.826;2023-02-01T03:17:53;3.20;99.90
20141;DHT22;10231;47.702;9.826;2023-02-01T03:20:22;3.20;99.90
20141;DHT22;10231;47.702;9.826;2023-02-01T03:22:48;3.20;99.90
20141;DHT22;10231;47.702;9.826;2023-02-01T03:25:27;3.10;99.90
20141;DHT22;10231;47.702;9.826;2023-02-01T03:28:03;3.10;99.90
20141;DHT22;10231;47.702;9.826;2023-02-01T03:30:34;3.10;99.90
20141;DHT22;10231;47.702;9.826;2023-02-01T03:33:04;3.20;99.90
20141;DHT22;10231;47.702;9.826;2023-02-01T03:43:55;3.20;99.90
20141;DHT22;10231;47.702;9.826;2023-02-01T03:46:34;3.20;99.90
20141;DHT22;10231;47.702;9.826;2023-02-01T03:49:04;3.30;99.90
20141;DHT22;10231;47.702;9.826;2023-02-01T03:51:31;3.30;99.90
20141;DHT22;10231;47.702;9.826;2023-02-01T03:53:59;3.30;99.90
20141;DHT22;10231;47.702;9.826;2023-02-01T03:56:27;3.30;99.90
20141;DHT22;10231;47.702;9.826;2023-02-01T03:58:53;3.30;99.90
20141;DHT22;10231;47.702;9.826;2023-02-01T04:01:27;3.20;99.90
20141;DHT22;10231;47.702;9.826;2023-02-01T04:03:53;3.20;99.90
20141;DHT22;10231;47.702;9.826;2023-02-01T04:06:19;3.20;99.90
20141;DHT22;10231;47.702;9.826;2023-02-01T04:08:44;3.30;99.90
20141;DHT22;10231;47.702;9.826;2023-02-01T04:11:10;3.30;99.90
20141;DHT22;10231;47.702;9.826;2023-02-01T04:13:35;3.30;99.90
20141;DHT22;10231;47.702;9.826;2023-02-01T04:16:01;3.30;99.90
20141;DHT22;10231;47.702;9.826;2023-02-01T04:18:26;3.30;99.90
20141;DHT22;10231;47.702;9.826;2023-02-01T04:20:52;3.30;99.90
20141;DHT22;10231;47.702;9.826;2023-02-01T04:23:17;3.30;99.90
20141;DHT22;10231;47.702;9.826;2023-02-01T04:25:43;3.20;99.90
20141;DHT22;10231;47.702;9.826;2023-02-01T04:28:09;3.20;99.90
20141;DHT22;10231;47.702;9.826;2023-02-01T04:30:34;3.30;99.90
20141;DHT22;10231;47.702;9.826;2023-02-01T04:33:00;3.30;99.90
20141;DHT22;10231;47.702;9.826;2023-02-01T04:35:25;3.20;99.90
20141;DHT22;10231;47.702;9.826;2023-02-01T04:37:51;3.20;99.90
20141;DHT22;10231;47.702;9.826;2023-02-01T04:40:16;3.20;99.90
20141;DHT22;10231;47.702;9.826;2023-02-01T04:42:42;3.30;99.90
20141;DHT22;10231;47.702;9.826;2023-02-01T04:45:08;3.20;99.90
20141;DHT22;10231;47.702;9.826;2023-02-01T04:47:34;3.30;99.90
20141;DHT22;10231;47.702;9.826;2023-02-01T04:50:00;3.20;99.90
20141;DHT22;10231;47.702;9.826;2023-02-01T04:52:25;3.20;99.90
20141;DHT22;10231;47.702;9.826;2023-02-01T04:54:55;3.20;99.90
20141;DHT22;10231;47.702;9.826;2023-02-01T04:57:23;3.20;99.90
20141;DHT22;10231;47.702;9.826;2023-02-01T04:59:48;3.20;99.90
20141;DHT22;10231;47.702;9.826;2023-02-01T05:02:14;3.10;99.90
20141;DHT22;10231;47.702;9.826;2023-02-01T05:04:39;3.20;99.90
20141;DHT22;10231;47.702;9.826;2023-02-01T05:07:05;3.20;99.90
20141;DHT22;10231;47.702;9.826;2023-02-01T05:09:30;3.20;99.90
20141;DHT22;10231;47.702;9.826;2023-02-01T05:11:56;3.20;99.90
20141;DHT22;10231;47.702;9.826;2023-02-01T05:14:40;3.20;99.90
20141;DHT22;10231;47.702;9.826;2023-02-01T05:17:05;3.20;99.90
20141;DHT22;10231;47.702;9.826;2023-02-01T05:19:31;3.10;99.90
20141;DHT22;10231;47.702;9.826;2023-02-01T05:21:56;3.20;99.90
20141;DHT22;10231;47.702;9.826;2023-02-01T05:24:22;3.20;99.90
20141;DHT22;10231;47.702;9.826;2023-02-01T05:26:48;3.20;99.90
20141;DHT22;10231;47.702;9.826;2023-02-01T05:29:15;3.20;99.90
20141;DHT22;10231;47.702;9.826;2023-02-01T05:31:41;3.20;99.90
20141;DHT22;10231;47.702;9.826;2023-02-01T05:34:07;3.20;99.90
20141;DHT22;10231;47.702;9.826;2023-02-01T05:36:33;3.20;99.90
20141;DHT22;10231;47.702;9.826;2023-02-01T05:38:58;3.10;99.90
20141;DHT22;10231;47.702;9.826;2023-02-01T05:41:24;3.10;99.90
20141;DHT22;10231;47.702;9.826;2023-02-01T05:43:50;3.20;99.90
20141;DHT22;10231;47.702;9.826;2023-02-01T05:46:15;3.10;99.90
20141;DHT22;10231;47.702;9.826;2023-02-01T05:48:42;3.10;99.90
20141;DHT22;10231;47.702;9.826;2023-02-01T05:51:08;3.10;99.90
20141;DHT22;10231;47.702;9.826;2023-02-01T05:53:34;3.10;99.90
20141;DHT22;10231;47.702;9.826;2023-02-01T05:56:00;3.10;99.90
20141;DHT22;10231;47.702;9.826;2023-02-01T05:58:26;3.00;99.90
20141;DHT22;10231;47.702;9.826;2023-02-01T06:00:51;3.10;99.90
20141;DHT22;10231;47.702;9.826;2023-02-01T06:03:17;3.10;99.90
20141;DHT22;10231;47.702;9.826;2023-02-01T06:05:44;3.10;99.90
20141;DHT22;10231;47.702;9.826;2023-02-01T06:08:10;3.20;99.90
20141;DHT22;10231;47.702;9.826;2023-02-01T06:10:36;3.10;99.90
20141;DHT22;10231;47.702;9.826;2023-02-01T06:13:01;3.10;99.90
20141;DHT22;10231;47.702;9.826;2023-02-01T06:15:29;3.10;99.90
20141;DHT22;10231;47.702;9.826;2023-02-01T06:17:55;3.10;99.90
20141;DHT22;10231;47.702;9.826;2023-02-01T06:20:21;3.10;99.90
20141;DHT22;10231;47.702;9.826;2023-02-01T06:22:46;3.10;99.90
20141;DHT22;10231;47.702;9.826;2023-02-01T06:25:12;3.10;99.90
20141;DHT22;10231;47.702;9.826;2023-02-01T06:27:38;3.10;99.90
20141;DHT22;10231;47.702;9.826;2023-02-01T06:30:05;3.10;99.90
20141;DHT22;10231;47.702;9.826;2023-02-01T06:32:32;3.10;99.90
20141;DHT22;10231;47.702;9.826;2023-02-01T06:34:58;3.10;99.90
20141;DHT22;10231;47.702;9.826;2023-02-01T06:37:24;3.10;99.90
20141;DHT22;10231;47.702;9.826;2023-02-01T06:39:50;3.20;99.90
20141;DHT22;10231;47.702;9.826;2023-02-01T06:42:16;3.20;99.90
20141;DHT22;10231;47.702;9.826;2023-02-01T06:44:42;3.20;99.90
20141;DHT22;10231;47.702;9.826;2023-02-01T06:47:07;3.40;99.90
20141;DHT22;10231;47.702;9.826;2023-02-01T06:49:33;3.60;99.90
20141;DHT22;10231;47.702;9.826;2023-02-01T06:51:58;3.50;99.90
20141;DHT22;10231;47.702;9.826;2023-02-01T06:54:27;3.50;99.90
20141;DHT22;10231;47.702;9.826;2023-02-01T06:56:53;3.50;99.90
20141;DHT22;10231;47.702;9.826;2023-02-01T06:59:18;3.40;99.90
20141;DHT22;10231;47.702;9.826;2023-02-01T07:01:44;3.40;99.90
20141;DHT22;10231;47.702;9.826;2023-02-01T07:04:11;3.30;99.90
20141;DHT22;10231;47.702;9.826;2023-02-01T07:06:37;3.30;99.90
20141;DHT22;10231;47.702;9.826;2023-02-01T07:09:03;3.30;99.90
20141;DHT22;10231;47.702;9.826;2023-02-01T07:11:28;3.30;99.90
20141;DHT22;10231;47.702;9.826;2023-02-01T07:13:54;3.30;99.90
20141;DHT22;10231;47.702;9.826;2023-02-01T07:16:20;3.30;99.90
20141;DHT22;10231;47.702;9.826;2023-02-01T07:18:46;3.30;99.90
20141;DHT22;10231;47.702;9.826;2023-02-01T07:21:12;3.30;99.90
20141;DHT22;10231;47.702;9.826;2023-02-01T07:23:38;3.30;99.90
20141;DHT22;10231;47.702;9.826;2023-02-01T07:26:06;3.30;99.90
20141;DHT22;10231;47.702;9.826;2023-02-01T07:28:33;3.30;99.90
20141;DHT22;10231;47.702;9.826;2023-02-01T07:31:14;3.40;99.90
20141;DHT22;10231;47.702;9.826;2023-02-01T07:33:47;3.40;99.90
20141;DHT22;10231;47.702;9.826;2023-02-01T07:36:15;3.40;99.90
20141;DHT22;10231;47.702;9.826;2023-02-01T07:38:41;3.40;99.90
20141;DHT22;10231;47.702;9.826;2023-02-01T07:41:07;3.40;99.90
20141;DHT22;10231;47.702;9.826;2023-02-01T07:43:34;3.40;99.90
20141;DHT22;10231;47.702;9.826;2023-02-01T07:46:00;3.40;99.90
20141;DHT22;10231;47.702;9.826;2023-02-01T07:48:27;3.40;99.90
20141;DHT22;10231;47.702;9.826;2023-02-01T07:51:03;3.30;99.90
20141;DHT22;10231;47.702;9.826;2023-02-01T07:53:31;3.30;99.90
20141;DHT22;10231;47.702;9.826;2023-02-01T07:55:57;3.40;99.90
20141;DHT22;10231;47.702;9.826;2023-02-01T07:58:23;3.40;99.90
20141;DHT22;10231;47.702;9.826;2023-02-01T08:00:49;3.40;99.90
20141;DHT22;10231;47.702;9.826;2023-02-01T08:03:33;3.40;99.90
20141;DHT22;10231;47.702;9.826;2023-02-01T08:05:59;3.40;99.90
20141;DHT22;10231;47.702;9.826;2023-02-01T08:08:25;3.30;99.90
20141;DHT22;10231;47.702;9.826;2023-02-01T08:10:50;3.40;99.90
20141;DHT22;10231;47.702;9.826;2023-02-01T08:13:16;3.30;99.90
20141;DHT22;10231;47.702;9.826;2023-02-01T08:15:41;3.40;99.90
20141;DHT22;10231;47.702;9.826;2023-02-01T08:18:07;3.40;99.90
20141;DHT22;10231;47.702;9.826;2023-02-01T08:20:33;3.40;99.90
20141;DHT22;10231;47.702;9.826;2023-02-01T08:23:01;3.40;99.90
20141;DHT22;10231;47.702;9.826;2023-02-01T08:25:27;3.40;99.90
20141;DHT22;10231;47.702;9.826;2023-02-01T08:27:53;3.30;99.90
20141;DHT22;10231;47.702;9.826;2023-02-01T08:30:20;3.30;99.90
20141;DHT22;10231;47.702;9.826;2023-02-01T08:32:45;3.40;99.90
20141;DHT22;10231;47.702;9.826;2023-02-01T08:35:11;3.40;99.90
20141;DHT22;10231;47.702;9.826;2023-02-01T08:37:36;3.40;99.90
20141;DHT22;10231;47.702;9.826;2023-02-01T08:40:03;3.40;99.90
20141;DHT22;10231;47.702;9.826;2023-02-01T08:42:29;3.40;99.90
20141;DHT22;10231;47.702;9.826;2023-02-01T08:45:13;3.40;99.90
20141;DHT22;10231;47.702;9.826;2023-02-01T08:47:39;3.40;99.90
20141;DHT22;10231;47.702;9.826;2023-02-01T08:50:05;3.40;99.90
20141;DHT22;10231;47.702;9.826;2023-02-01T08:52:31;3.40;99.90
20141;DHT22;10231;47.702;9.826;2023-02-01T08:54:56;3.40;99.90
20141;DHT22;10231;47.702;9.826;2023-02-01T08:57:22;3.30;99.90
20141;DHT22;10231;47.702;9.826;2023-02-01T08:59:47;3.40;99.90
20141;DHT22;10231;47.702;9.826;2023-02-01T09:02:17;3.40;99.90
20141;DHT22;10231;47.702;9.826;2023-02-01T09:04:43;3.40;99.90
20141;DHT22;10231;47.702;9.826;2023-02-01T09:07:09;3.40;99.90
20141;DHT22;10231;47.702;9.826;2023-02-01T09:09:36;3.40;99.90
20141;DHT22;10231;47.702;9.826;2023-02-01T09:12:02;3.40;99.90
20141;DHT22;10231;47.702;9.826;2023-02-01T09:14:28;3.50;99.90
20141;DHT22;10231;47.702;9.826;2023-02-01T09:16:54;3.50;99.90
20141;DHT22;10231;47.702;9.826;2023-02-01T09:19:19;3.40;99.90
20141;DHT22;10231;47.702;9.826;2023-02-01T09:21:45;3.40;99.90
20141;DHT22;10231;47.702;9.826;2023-02-01T09:24:11;3.50;99.90
20141;DHT22;10231;47.702;9.826;2023-02-01T09:26:37;3.50;99.90
20141;DHT22;10231;47.702;9.826;2023-02-01T09:29:03;3.50;99.90
20141;DHT22;10231;47.702;9.826;2023-02-01T09:31:29;3.50;99.90
20141;DHT22;10231;47.702;9.826;2023-02-01T09:33:56;3.50;99.90
20141;DHT22;10231;47.702;9.826;2023-02-01T09:36:21;3.50;99.90
20141;DHT22;10231;47.702;9.826;2023-02-01T09:38:48;3.50;99.90
20141;DHT22;10231;47.702;9.826;2023-02-01T09:44:06;3.50;99.90
20141;DHT22;10231;47.702;9.826;2023-02-01T09:46:33;3.50;99.90
20141;DHT22;10231;47.702;9.826;2023-02-01T09:49:20;3.50;99.90
20141;DHT22;10231;47.702;9.826;2023-02-01T09:51:49;3.50;99.90
20141;DHT22;10231;47.702;9.826;2023-02-01T09:54:22;3.60;99.90
20141;DHT22;10231;47.702;9.826;2023-02-01T09:57:19;3.60;99.90
20141;DHT22;10231;47.702;9.826;2023-02-01T09:59:51;3.70;99.90
20141;DHT22;10231;47.702;9.826;2023-02-01T10:02:24;3.70;99.90
20141;DHT22;10231;47.702;9.826;2023-02-01T10:04:54;3.70;99.90
20141;DHT22;10231;47.702;9.826;2023-02-01T10:13:37;3.70;99.90
20141;DHT22;10231;47.702;9.826;2023-02-01T10:29:33;3.90;99.90
20141;DHT22;10231;47.702;9.826;2023-02-01T10:32:01;3.90;99.90
20141;DHT22;10231;47.702;9.826;2023-02-01T10:34:30;3.90;99.90
20141;DHT22;10231;47.702;9.826;2023-02-01T10:37:01;4.00;99.90
20141;DHT22;10231;47.702;9.826;2023-02-01T10:39:26;4.00;99.90
20141;DHT22;10231;47.702;9.826;2023-02-01T10:41:54;4.00;99.90
20141;DHT22;10231;47.702;9.826;2023-02-01T10:44:25;4.00;99.90
20141;DHT22;10231;47.702;9.826;2023-02-01T10:46:51;4.00;99.90
20141;DHT22;10231;47.702;9.826;2023-02-01T10:49:20;4.00;99.90
20141;DHT22;10231;47.702;9.826;2023-02-01T10:51:52;4.00;99.90
20141;DHT22;10231;47.702;9.826;2023-02-01T10:54:22;4.00;99.90
20141;DHT22;10231;47.702;9.826;2023-02-01T10:56:56;4.00;99.90
20141;DHT22;10231;47.702;9.826;2023-02-01T10:59:24;4.10;99.90
20141;DHT22;10231;47.702;9.826;2023-02-01T11:01:59;4.10;99.90
20141;DHT22;10231;47.702;9.826;2023-02-01T11:04:26;4.10;99.90
20141;DHT22;10231;47.702;9.826;2023-02-01T11:07:24;4.10;99.90
20141;DHT22;10231;47.702;9.826;2023-02-01T11:09:52;4.10;99.90
20141;DHT22;10231;47.702;9.826;2023-02-01T11:12:30;4.20;99.90
20141;DHT22;10231;47.702;9.826;2023-02-01T11:15:14;4.20;99.90
20141;DHT22;10231;47.702;9.826;2023-02-01T11:17:43;4.20;99.90
20141;DHT22;10231;47.702;9.826;2023-02-01T11:20:33;4.20;99.90
20141;DHT22;10231;47.702;9.826;2023-02-01T11:23:01;4.20;99.90
20141;DHT22;10231;47.702;9.826;2023-02-01T11:25:27;4.20;99.90
20141;DHT22;10231;47.702;9.826;2023-02-01T11:27:54;4.20;99.90
20141;DHT22;10231;47.702;9.826;2023-02-01T11:30:46;4.30;99.90
20141;DHT22;10231;47.702;9.826;2023-02-01T11:33:17;4.20;99.90
20141;DHT22;10231;47.702;9.826;2023-02-01T11:35:44;4.30;99.90
20141;DHT22;10231;47.702;9.826;2023-02-01T11:38:28;4.30;99.90
20141;DHT22;10231;47.702;9.826;2023-02-01T11:40:55;4.30;99.90
20141;DHT22;10231;47.702;9.826;2023-02-01T11:43:26;4.40;99.90
20141;DHT22;10231;47.702;9.826;2023-02-01T11:45:57;4.40;99.90
20141;DHT22;10231;47.702;9.826;2023-02-01T11:48:25;4.40;99.90
20141;DHT22;10231;47.702;9.826;2023-02-01T11:59:28;4.40;99.90
20141;DHT22;10231;47.702;9.826;2023-02-01T12:07:37;4.40;99.90
20141;DHT22;10231;47.702;9.826;2023-02-01T12:13:06;4.40;99.90
20141;DHT22;10231;47.702;9.826;2023-02-01T12:18:30;4.40;99.90
20141;DHT22;10231;47.702;9.826;2023-02-01T12:32:33;4.40;99.90
20141;DHT22;10231;47.702;9.826;2023-02-01T12:35:22;4.40;99.90
20141;DHT22;10231;47.702;9.826;2023-02-01T12:43:43;4.50;99.90
20141;DHT22;10231;47.702;9.826;2023-02-01T12:46:26;4.60;99.90
20141;DHT22;10231;47.702;9.826;2023-02-01T12:48:57;4.60;99.90
20141;DHT22;10231;47.702;9.826;2023-02-01T12:51:31;4.60;99.90
20141;DHT22;10231;47.702;9.826;2023-02-01T12:54:41;4.70;99.90
20141;DHT22;10231;47.702;9.826;2023-02-01T12:57:35;4.70;99.90
20141;DHT22;10231;47.702;9.826;2023-02-01T13:03:34;4.80;99.90
20141;DHT22;10231;47.702;9.826;2023-02-01T13:05:57;4.80;99.90
20141;DHT22;10231;47.702;9.826;2023-02-01T13:08:47;4.80;99.90
20141;DHT22;10231;47.702;9.826;2023-02-01T13:11:24;4.70;99.90
20141;DHT22;10231;47.702;9.826;2023-02-01T13:14:19;4.70;99.90
20141;DHT22;10231;47.702;9.826;2023-02-01T13:17:02;4.70;99.90
20141;DHT22;10231;47.702;9.826;2023-02-01T13:19:30;4.80;99.90
20141;DHT22;10231;47.702;9.826;2023-02-01T13:22:09;4.80;99.90
20141;DHT22;10231;47.702;9.826;2023-02-01T13:24:54;4.80;99.90
20141;DHT22;10231;47.702;9.826;2023-02-01T13:27:21;4.80;99.90
20141;DHT22;10231;47.702;9.826;2023-02-01T13:30:04;4.80;99.90
20141;DHT22;10231;47.702;9.826;2023-02-01T13:38:16;4.70;99.90
20141;DHT22;10231;47.702;9.826;2023-02-01T13:43:21;4.80;99.90
20141;DHT22;10231;47.702;9.826;2023-02-01T13:45:54;4.80;99.90
20141;DHT22;10231;47.702;9.826;2023-02-01T13:48:35;4.70;99.90
20141;DHT22;10231;47.702;9.826;2023-02-01T13:51:04;4.80;99.90
20141;DHT22;10231;47.702;9.826;2023-02-01T13:53:34;4.80;99.90
20141;DHT22;10231;47.702;9.826;2023-02-01T13:56:20;4.80;99.90
20141;DHT22;10231;47.702;9.826;2023-02-01T13:58:48;4.80;99.90
20141;DHT22;10231;47.702;9.826;2023-02-01T14:03:54;4.80;99.90
20141;DHT22;10231;47.702;9.826;2023-02-01T14:11:46;4.70;99.90
20141;DHT22;10231;47.702;9.826;2023-02-01T14:16:44;4.70;99.90
20141;DHT22;10231;47.702;9.826;2023-02-01T14:19:31;4.70;99.90
20141;DHT22;10231;47.702;9.826;2023-02-01T14:22:31;4.70;99.90
20141;DHT22;10231;47.702;9.826;2023-02-01T14:24:54;4.60;99.90
20141;DHT22;10231;47.702;9.826;2023-02-01T14:27:24;4.60;99.90
20141;DHT22;10231;47.702;9.826;2023-02-01T14:30:02;4.60;99.90
20141;DHT22;10231;47.702;9.826;2023-02-01T14:32:40;4.50;99.90
20141;DHT22;10231;47.702;9.826;2023-02-01T14:35:26;4.60;99.90
20141;DHT22;10231;47.702;9.826;2023-02-01T14:38:00;4.50;99.90
20141;DHT22;10231;47.702;9.826;2023-02-01T14:40:28;4.50;99.90
20141;DHT22;10231;47.702;9.826;2023-02-01T14:42:54;4.50;99.90
20141;DHT22;10231;47.702;9.826;2023-02-01T14:55:40;4.50;99.90
20141;DHT22;10231;47.702;9.826;2023-02-01T14:58:29;4.50;99.90
20141;DHT22;10231;47.702;9.826;2023-02-01T15:00:59;4.50;99.90
20141;DHT22;10231;47.702;9.826;2023-02-01T15:03:56;4.50;99.90
20141;DHT22;10231;47.702;9.826;2023-02-01T15:06:30;4.50;99.90
20141;DHT22;10231;47.702;9.826;2023-02-01T15:17:19;4.60;99.90
20141;DHT22;10231;47.702;9.826;2023-02-01T15:19:58;4.60;99.90
20141;DHT22;10231;47.702;9.826;2023-02-01T15:22:25;4.60;99.90
20141;DHT22;10231;47.702;9.826;2023-02-01T15:24:56;4.60;99.90
20141;DHT22;10231;47.702;9.826;2023-02-01T15:27:23;4.60;99.90
20141;DHT22;10231;47.702;9.826;2023-02-01T15:29:48;4.70;99.90
20141;DHT22;10231;47.702;9.826;2023-02-01T15:32:32;4.60;99.90
20141;DHT22;10231;47.702;9.826;2023-02-01T15:34:59;4.60;99.90
20141;DHT22;10231;47.702;9.826;2023-02-01T15:37:26;4.70;99.90
20141;DHT22;10231;47.702;9.826;2023-02-01T15:42:56;4.70;99.90
20141;DHT22;10231;47.702;9.826;2023-02-01T15:45:26;4.70;99.90
20141;DHT22;10231;47.702;9.826;2023-02-01T15:47:54;4.70;99.90
20141;DHT22;10231;47.702;9.826;2023-02-01T15:50:21;4.60;99.90
20141;DHT22;10231;47.702;9.826;2023-02-01T15:52:49;4.60;99.90
20141;DHT22;10231;47.702;9.826;2023-02-01T15:57:57;4.70;99.90
20141;DHT22;10231;47.702;9.826;2023-02-01T16:00:25;4.70;99.90
20141;DHT22;10231;47.702;9.826;2023-02-01T16:02:59;4.60;99.90
20141;DHT22;10231;47.702;9.826;2023-02-01T16:05:37;4.60;99.90
20141;DHT22;10231;47.702;9.826;2023-02-01T16:08:13;4.60;99.90
20141;DHT22;10231;47.702;9.826;2023-02-01T16:10:46;4.70;99.90
20141;DHT22;10231;47.702;9.826;2023-02-01T16:13:14;4.70;99.90
20141;DHT22;10231;47.702;9.826;2023-02-01T16:15:40;4.70;99.90
20141;DHT22;10231;47.702;9.826;2023-02-01T16:18:06;4.70;99.90
20141;DHT22;10231;47.702;9.826;2023-02-01T16:20:33;4.60;99.90
20141;DHT22;10231;47.702;9.826;2023-02-01T16:23:01;4.60;99.90
20141;DHT22;10231;47.702;9.826;2023-02-01T16:25:26;4.60;99.90
20141;DHT22;10231;47.702;9.826;2023-02-01T16:27:52;4.50;99.90
20141;DHT22;10231;47.702;9.826;2023-02-01T16:30:18;4.50;99.90
20141;DHT22;10231;47.702;9.826;2023-02-01T16:32:48;4.60;99.90
20141;DHT22;10231;47.702;9.826;2023-02-01T16:35:35;4.50;99.90
20141;DHT22;10231;47.702;9.826;2023-02-01T16:38:15;4.50;99.90
20141;DHT22;10231;47.702;9.826;2023-02-01T16:40:44;4.50;99.90
20141;DHT22;10231;47.702;9.826;2023-02-01T16:43:23;4.40;99.90
20141;DHT22;10231;47.702;9.826;2023-02-01T16:45:52;4.40;99.90
20141;DHT22;10231;47.702;9.826;2023-02-01T16:48:25;4.40;99.90
20141;DHT22;10231;47.702;9.826;2023-02-01T16:50:54;4.30;99.90
20141;DHT22;10231;47.702;9.826;2023-02-01T16:53:21;4.40;99.90
20141;DHT22;10231;47.702;9.826;2023-02-01T16:55:47;4.40;99.90
20141;DHT22;10231;47.702;9.826;2023-02-01T16:58:16;4.40;99.90
20141;DHT22;10231;47.702;9.826;2023-02-01T17:00:42;4.40;99.90
20141;DHT22;10231;47.702;9.826;2023-02-01T17:03:08;4.40;99.90
20141;DHT22;10231;47.702;9.826;2023-02-01T17:05:34;4.40;99.90
20141;DHT22;10231;47.702;9.826;2023-02-01T17:08:04;4.40;99.90
20141;DHT22;10231;47.702;9.826;2023-02-01T17:10:31;4.30;99.90
20141;DHT22;10231;47.702;9.826;2023-02-01T17:12:56;4.40;99.90
20141;DHT22;10231;47.702;9.826;2023-02-01T17:15:24;4.40;99.90
20141;DHT22;10231;47.702;9.826;2023-02-01T17:17:51;4.40;99.90
20141;DHT22;10231;47.702;9.826;2023-02-01T17:20:22;4.30;99.90
20141;DHT22;10231;47.702;9.826;2023-02-01T17:22:48;4.40;99.90
20141;DHT22;10231;47.702;9.826;2023-02-01T17:25:19;4.30;99.90
20141;DHT22;10231;47.702;9.826;2023-02-01T17:27:46;4.30;99.90
20141;DHT22;10231;47.702;9.826;2023-02-01T17:30:13;4.30;99.90
20141;DHT22;10231;47.702;9.826;2023-02-01T17:32:39;4.30;99.90
20141;DHT22;10231;47.702;9.826;2023-02-01T17:35:08;4.30;99.90
20141;DHT22;10231;47.702;9.826;2023-02-01T17:37:37;4.30;99.90
20141;DHT22;10231;47.702;9.826;2023-02-01T17:40:03;4.30;99.90
20141;DHT22;10231;47.702;9.826;2023-02-01T17:42:29;4.30;99.90
20141;DHT22;10231;47.702;9.826;2023-02-01T17:45:13;4.30;99.90
20141;DHT22;10231;47.702;9.826;2023-02-01T17:47:41;4.30;99.90
20141;DHT22;10231;47.702;9.826;2023-02-01T17:50:08;4.30;99.90
20141;DHT22;10231;47.702;9.826;2023-02-01T17:52:33;4.30;99.90
20141;DHT22;10231;47.702;9.826;2023-02-01T17:55:00;4.30;99.90
20141;DHT22;10231;47.702;9.826;2023-02-01T17:57:27;4.40;99.90
20141;DHT22;10231;47.702;9.826;2023-02-01T17:59:53;4.30;99.90
20141;DHT22;10231;47.702;9.826;2023-02-01T18:02:21;4.30;99.90
20141;DHT22;10231;47.702;9.826;2023-02-01T18:04:47;4.30;99.90
20141;DHT22;10231;47.702;9.826;2023-02-01T18:07:14;4.30;99.90
20141;DHT22;10231;47.702;9.826;2023-02-01T18:09:39;4.30;99.90
20141;DHT22;10231;47.702;9.826;2023-02-01T18:12:06;4.30;99.90
20141;DHT22;10231;47.702;9.826;2023-02-01T18:14:39;4.30;99.90
20141;DHT22;10231;47.702;9.826;2023-02-01T18:17:04;4.30;99.90
20141;DHT22;10231;47.702;9.826;2023-02-01T18:19:30;4.20;99.90
20141;DHT22;10231;47.702;9.826;2023-02-01T18:21:55;4.30;99.90
20141;DHT22;10231;47.702;9.826;2023-02-01T18:24:22;4.30;99.90
20141;DHT22;10231;47.702;9.826;2023-02-01T18:26:48;4.30;99.90
20141;DHT22;10231;47.702;9.826;2023-02-01T18:29:13;4.30;99.90
20141;DHT22;10231;47.702;9.826;2023-02-01T18:31:47;4.30;99.90